sensor_id;sensor_type;location;lat;lon;timestamp;P1;durP1;ratioP1;P2;durP2;ratioP2
52934;SDS011;38802;50.198;19.796;2022-07-29T00:02:26;7.10;;;1.90;;
52934;SDS011;38802;50.198;19.796;2022-07-29T00:04:53;3.60;;;2.20;;
52934;SDS011;38802;50.198;19.796;2022-07-29T00:07:20;10.00;;;2.10;;
52934;SDS011;38802;50.198;19.796;2022-07-29T00:09:47;2.60;;;1.90;;
52934;SDS011;38802;50.198;19.796;2022-07-29T00:12:18;3.80;;;1.50;;
52934;SDS011;38802;50.198;19.796;2022-07-29T00:14:53;9.80;;;2.10;;
52934;SDS011;38802;50.198;19.796;2022-07-29T00:17:21;4.60;;;1.90;;
52934;SDS011;38802;50.198;19.796;2022-07-29T00:19:48;4.50;;;1.40;;
52934;SDS011;38802;50.198;19.796;2022-07-29T00:22:15;5.60;;;1.80;;
52934;SDS011;38802;50.198;19.796;2022-07-29T00:24:42;2.70;;;1.70;;
52934;SDS011;38802;50.198;19.796;2022-07-29T00:27:09;5.80;;;1.40;;
52934;SDS011;38802;50.198;19.796;2022-07-29T00:29:35;7.10;;;1.50;;
52934;SDS011;38802;50.198;19.796;2022-07-29T00:32:02;4.60;;;1.80;;
52934;SDS011;38802;50.198;19.796;2022-07-29T00:34:30;3.00;;;1.50;;
52934;SDS011;38802;50.198;19.796;2022-07-29T00:37:16;5.10;;;2.10;;
52934;SDS011;38802;50.198;19.796;2022-07-29T00:39:43;5.20;;;2.10;;
52934;SDS011;38802;50.198;19.796;2022-07-29T00:42:10;4.40;;;2.20;;
52934;SDS011;38802;50.198;19.796;2022-07-29T00:44:37;4.20;;;2.10;;
52934;SDS011;38802;50.198;19.796;2022-07-29T00:47:08;7.10;;;1.80;;
52934;SDS011;38802;50.198;19.796;2022-07-29T00:49:36;9.90;;;2.00;;
52934;SDS011;38802;50.198;19.796;2022-07-29T00:52:05;7.70;;;2.00;;
52934;SDS011;38802;50.198;19.796;2022-07-29T00:54:34;8.70;;;2.30;;
52934;SDS011;38802;50.198;19.796;2022-07-29T00:57:10;3.80;;;1.90;;
52934;SDS011;38802;50.198;19.796;2022-07-29T00:59:39;5.00;;;2.00;;
52934;SDS011;38802;50.198;19.796;2022-07-29T01:02:06;2.10;;;1.50;;
52934;SDS011;38802;50.198;19.796;2022-07-29T01:04:33;4.40;;;1.90;;
52934;SDS011;38802;50.198;19.796;2022-07-29T01:07:00;3.60;;;1.60;;
52934;SDS011;38802;50.198;19.796;2022-07-29T01:09:28;3.10;;;2.30;;
52934;SDS011;38802;50.198;19.796;2022-07-29T01:12:15;2.50;;;1.70;;
52934;SDS011;38802;50.198;19.796;2022-07-29T01:14:48;2.60;;;2.30;;
52934;SDS011;38802;50.198;19.796;2022-07-29T01:30:38;2.60;;;1.90;;
52934;SDS011;38802;50.198;19.796;2022-07-29T01:33:10;4.20;;;2.00;;
52934;SDS011;38802;50.198;19.796;2022-07-29T01:36:01;2.90;;;1.60;;
52934;SDS011;38802;50.198;19.796;2022-07-29T01:38:36;4.00;;;1.80;;
52934;SDS011;38802;50.198;19.796;2022-07-29T01:41:06;6.00;;;2.30;;
52934;SDS011;38802;50.198;19.796;2022-07-29T01:46:20;6.40;;;2.10;;
52934;SDS011;38802;50.198;19.796;2022-07-29T01:48:56;4.20;;;2.10;;
52934;SDS011;38802;50.198;19.796;2022-07-29T01:51:32;5.30;;;2.10;;
52934;SDS011;38802;50.198;19.796;2022-07-29T01:54:08;4.80;;;2.10;;
52934;SDS011;38802;50.198;19.796;2022-07-29T01:56:37;9.40;;;1.60;;
52934;SDS011;38802;50.198;19.796;2022-07-29T01:59:06;2.80;;;1.70;;
52934;SDS011;38802;50.198;19.796;2022-07-29T02:01:36;4.30;;;2.00;;
52934;SDS011;38802;50.198;19.796;2022-07-29T02:04:06;10.40;;;2.20;;
52934;SDS011;38802;50.198;19.796;2022-07-29T02:06:37;7.40;;;2.00;;
52934;SDS011;38802;50.198;19.796;2022-07-29T02:09:06;3.30;;;1.70;;
52934;SDS011;38802;50.198;19.796;2022-07-29T02:11:36;4.70;;;2.10;;
52934;SDS011;38802;50.198;19.796;2022-07-29T02:14:05;4.60;;;2.10;;
52934;SDS011;38802;50.198;19.796;2022-07-29T02:16:34;3.70;;;1.60;;
52934;SDS011;38802;50.198;19.796;2022-07-29T02:19:04;6.50;;;2.00;;
52934;SDS011;38802;50.198;19.796;2022-07-29T02:21:33;3.00;;;1.80;;
52934;SDS011;38802;50.198;19.796;2022-07-29T02:24:02;5.90;;;2.10;;
52934;SDS011;38802;50.198;19.796;2022-07-29T02:26:31;5.80;;;2.10;;
52934;SDS011;38802;50.198;19.796;2022-07-29T02:29:00;2.80;;;2.10;;
52934;SDS011;38802;50.198;19.796;2022-07-29T02:31:30;4.70;;;1.40;;
52934;SDS011;38802;50.198;19.796;2022-07-29T02:34:01;6.00;;;1.80;;
52934;SDS011;38802;50.198;19.796;2022-07-29T02:36:29;3.20;;;1.70;;
52934;SDS011;38802;50.198;19.796;2022-07-29T02:38:58;4.80;;;1.70;;
52934;SDS011;38802;50.198;19.796;2022-07-29T02:41:30;2.20;;;1.40;;
52934;SDS011;38802;50.198;19.796;2022-07-29T02:44:05;4.00;;;1.80;;
52934;SDS011;38802;50.198;19.796;2022-07-29T02:46:36;3.60;;;1.70;;
52934;SDS011;38802;50.198;19.796;2022-07-29T02:52:00;3.20;;;1.60;;
52934;SDS011;38802;50.198;19.796;2022-07-29T02:54:39;5.00;;;1.90;;
52934;SDS011;38802;50.198;19.796;2022-07-29T02:57:14;6.90;;;1.80;;
52934;SDS011;38802;50.198;19.796;2022-07-29T03:02:16;4.90;;;1.40;;
52934;SDS011;38802;50.198;19.796;2022-07-29T03:04:43;8.40;;;2.50;;
52934;SDS011;38802;50.198;19.796;2022-07-29T03:07:13;4.90;;;1.90;;
52934;SDS011;38802;50.198;19.796;2022-07-29T03:09:42;2.60;;;1.80;;
52934;SDS011;38802;50.198;19.796;2022-07-29T03:12:09;5.90;;;2.00;;
52934;SDS011;38802;50.198;19.796;2022-07-29T03:14:37;3.60;;;1.60;;
52934;SDS011;38802;50.198;19.796;2022-07-29T03:17:04;7.50;;;2.00;;
52934;SDS011;38802;50.198;19.796;2022-07-29T03:19:32;7.30;;;2.10;;
52934;SDS011;38802;50.198;19.796;2022-07-29T03:22:00;3.90;;;1.80;;
52934;SDS011;38802;50.198;19.796;2022-07-29T03:24:31;2.60;;;1.60;;
52934;SDS011;38802;50.198;19.796;2022-07-29T03:27:00;3.30;;;1.80;;
52934;SDS011;38802;50.198;19.796;2022-07-29T03:29:28;4.20;;;1.90;;
52934;SDS011;38802;50.198;19.796;2022-07-29T03:32:01;5.80;;;2.10;;
52934;SDS011;38802;50.198;19.796;2022-07-29T03:34:33;4.60;;;2.10;;
52934;SDS011;38802;50.198;19.796;2022-07-29T03:37:00;6.70;;;2.00;;
52934;SDS011;38802;50.198;19.796;2022-07-29T03:39:27;3.60;;;1.70;;
52934;SDS011;38802;50.198;19.796;2022-07-29T03:41:57;8.50;;;1.90;;
52934;SDS011;38802;50.198;19.796;2022-07-29T03:44:26;8.80;;;2.10;;
52934;SDS011;38802;50.198;19.796;2022-07-29T03:46:55;5.60;;;2.50;;
52934;SDS011;38802;50.198;19.796;2022-07-29T03:49:27;8.50;;;2.20;;
52934;SDS011;38802;50.198;19.796;2022-07-29T03:51:54;2.90;;;2.30;;
52934;SDS011;38802;50.198;19.796;2022-07-29T03:54:22;4.30;;;2.20;;
52934;SDS011;38802;50.198;19.796;2022-07-29T03:56:49;5.70;;;1.80;;
52934;SDS011;38802;50.198;19.796;2022-07-29T03:59:18;6.10;;;2.20;;
52934;SDS011;38802;50.198;19.796;2022-07-29T04:01:48;6.00;;;1.80;;
52934;SDS011;38802;50.198;19.796;2022-07-29T04:04:16;3.40;;;1.70;;
52934;SDS011;38802;50.198;19.796;2022-07-29T04:06:44;4.80;;;2.20;;
52934;SDS011;38802;50.198;19.796;2022-07-29T04:09:14;7.60;;;2.70;;
52934;SDS011;38802;50.198;19.796;2022-07-29T04:11:41;4.20;;;1.80;;
52934;SDS011;38802;50.198;19.796;2022-07-29T04:14:29;3.60;;;2.30;;
52934;SDS011;38802;50.198;19.796;2022-07-29T04:16:57;2.90;;;1.90;;
52934;SDS011;38802;50.198;19.796;2022-07-29T04:19:24;3.60;;;1.90;;
52934;SDS011;38802;50.198;19.796;2022-07-29T04:21:50;4.30;;;2.70;;
52934;SDS011;38802;50.198;19.796;2022-07-29T04:24:17;2.80;;;1.70;;
52934;SDS011;38802;50.198;19.796;2022-07-29T04:26:45;3.40;;;1.70;;
52934;SDS011;38802;50.198;19.796;2022-07-29T04:29:12;6.80;;;2.30;;
52934;SDS011;38802;50.198;19.796;2022-07-29T04:31:41;3.20;;;2.10;;
52934;SDS011;38802;50.198;19.796;2022-07-29T04:34:08;2.30;;;1.60;;
52934;SDS011;38802;50.198;19.796;2022-07-29T04:36:36;8.00;;;2.30;;
52934;SDS011;38802;50.198;19.796;2022-07-29T04:39:03;3.20;;;1.90;;
52934;SDS011;38802;50.198;19.796;2022-07-29T04:41:30;2.90;;;1.90;;
52934;SDS011;38802;50.198;19.796;2022-07-29T04:43:59;4.80;;;1.80;;
52934;SDS011;38802;50.198;19.796;2022-07-29T04:46:31;4.00;;;2.10;;
52934;SDS011;38802;50.198;19.796;2022-07-29T04:48:58;5.00;;;1.50;;
52934;SDS011;38802;50.198;19.796;2022-07-29T04:51:25;7.60;;;1.80;;
52934;SDS011;38802;50.198;19.796;2022-07-29T04:53:52;5.00;;;2.20;;
52934;SDS011;38802;50.198;19.796;2022-07-29T04:56:18;4.90;;;1.90;;
52934;SDS011;38802;50.198;19.796;2022-07-29T04:58:45;4.80;;;2.00;;
52934;SDS011;38802;50.198;19.796;2022-07-29T05:01:12;5.10;;;1.90;;
52934;SDS011;38802;50.198;19.796;2022-07-29T05:03:39;2.90;;;1.10;;
52934;SDS011;38802;50.198;19.796;2022-07-29T05:06:06;3.70;;;1.80;;
52934;SDS011;38802;50.198;19.796;2022-07-29T05:08:33;2.80;;;1.80;;
52934;SDS011;38802;50.198;19.796;2022-07-29T05:11:00;6.10;;;1.70;;
52934;SDS011;38802;50.198;19.796;2022-07-29T05:13:41;5.30;;;1.70;;
52934;SDS011;38802;50.198;19.796;2022-07-29T05:16:13;3.50;;;1.70;;
52934;SDS011;38802;50.198;19.796;2022-07-29T05:18:40;4.30;;;2.00;;
52934;SDS011;38802;50.198;19.796;2022-07-29T05:21:08;3.90;;;2.10;;
52934;SDS011;38802;50.198;19.796;2022-07-29T05:23:35;5.80;;;1.80;;
52934;SDS011;38802;50.198;19.796;2022-07-29T05:26:02;9.50;;;1.60;;
52934;SDS011;38802;50.198;19.796;2022-07-29T05:28:29;5.00;;;1.60;;
52934;SDS011;38802;50.198;19.796;2022-07-29T05:31:00;2.80;;;1.60;;
52934;SDS011;38802;50.198;19.796;2022-07-29T05:33:27;4.30;;;1.90;;
52934;SDS011;38802;50.198;19.796;2022-07-29T05:36:05;8.60;;;1.80;;
52934;SDS011;38802;50.198;19.796;2022-07-29T05:38:34;7.50;;;1.80;;
52934;SDS011;38802;50.198;19.796;2022-07-29T05:41:01;10.50;;;1.80;;
52934;SDS011;38802;50.198;19.796;2022-07-29T05:43:29;4.50;;;1.50;;
52934;SDS011;38802;50.198;19.796;2022-07-29T05:45:56;4.80;;;1.90;;
52934;SDS011;38802;50.198;19.796;2022-07-29T05:48:23;4.20;;;1.60;;
52934;SDS011;38802;50.198;19.796;2022-07-29T05:50:51;5.60;;;2.10;;
52934;SDS011;38802;50.198;19.796;2022-07-29T05:53:18;5.20;;;2.00;;
52934;SDS011;38802;50.198;19.796;2022-07-29T05:55:47;4.30;;;1.60;;
52934;SDS011;38802;50.198;19.796;2022-07-29T05:58:15;4.00;;;1.70;;
52934;SDS011;38802;50.198;19.796;2022-07-29T06:00:42;4.70;;;2.10;;
52934;SDS011;38802;50.198;19.796;2022-07-29T06:03:08;5.30;;;1.70;;
52934;SDS011;38802;50.198;19.796;2022-07-29T06:05:35;3.30;;;1.70;;
52934;SDS011;38802;50.198;19.796;2022-07-29T06:08:02;2.10;;;1.80;;
52934;SDS011;38802;50.198;19.796;2022-07-29T06:10:32;4.20;;;1.60;;
52934;SDS011;38802;50.198;19.796;2022-07-29T06:12:59;1.90;;;1.50;;
52934;SDS011;38802;50.198;19.796;2022-07-29T06:15:26;3.40;;;1.70;;
52934;SDS011;38802;50.198;19.796;2022-07-29T06:17:54;6.00;;;1.60;;
52934;SDS011;38802;50.198;19.796;2022-07-29T06:20:29;9.50;;;1.70;;
52934;SDS011;38802;50.198;19.796;2022-07-29T06:22:58;7.20;;;1.70;;
52934;SDS011;38802;50.198;19.796;2022-07-29T06:25:26;10.10;;;2.10;;
52934;SDS011;38802;50.198;19.796;2022-07-29T06:27:55;3.70;;;1.90;;
52934;SDS011;38802;50.198;19.796;2022-07-29T06:30:22;6.30;;;1.60;;
52934;SDS011;38802;50.198;19.796;2022-07-29T06:32:49;3.20;;;1.30;;
52934;SDS011;38802;50.198;19.796;2022-07-29T06:35:16;3.90;;;1.60;;
52934;SDS011;38802;50.198;19.796;2022-07-29T06:38:03;10.90;;;1.70;;
52934;SDS011;38802;50.198;19.796;2022-07-29T06:40:42;6.10;;;2.00;;
52934;SDS011;38802;50.198;19.796;2022-07-29T06:43:32;5.20;;;1.70;;
52934;SDS011;38802;50.198;19.796;2022-07-29T06:46:19;2.50;;;1.50;;
52934;SDS011;38802;50.198;19.796;2022-07-29T06:48:47;8.10;;;2.10;;
52934;SDS011;38802;50.198;19.796;2022-07-29T06:51:14;2.70;;;1.80;;
52934;SDS011;38802;50.198;19.796;2022-07-29T06:53:49;3.40;;;1.50;;
52934;SDS011;38802;50.198;19.796;2022-07-29T06:56:33;4.20;;;1.80;;
52934;SDS011;38802;50.198;19.796;2022-07-29T06:59:10;4.10;;;1.80;;
52934;SDS011;38802;50.198;19.796;2022-07-29T07:01:39;2.40;;;1.40;;
52934;SDS011;38802;50.198;19.796;2022-07-29T07:04:08;5.60;;;1.60;;
52934;SDS011;38802;50.198;19.796;2022-07-29T07:06:36;2.00;;;1.30;;
52934;SDS011;38802;50.198;19.796;2022-07-29T07:09:04;2.20;;;1.60;;
52934;SDS011;38802;50.198;19.796;2022-07-29T07:11:31;5.40;;;1.60;;
52934;SDS011;38802;50.198;19.796;2022-07-29T07:13:58;3.50;;;1.70;;
52934;SDS011;38802;50.198;19.796;2022-07-29T07:16:32;2.50;;;1.40;;
52934;SDS011;38802;50.198;19.796;2022-07-29T07:19:02;3.00;;;1.50;;
52934;SDS011;38802;50.198;19.796;2022-07-29T07:21:29;2.90;;;1.70;;
52934;SDS011;38802;50.198;19.796;2022-07-29T07:23:57;4.70;;;2.00;;
52934;SDS011;38802;50.198;19.796;2022-07-29T07:26:25;5.30;;;2.00;;
52934;SDS011;38802;50.198;19.796;2022-07-29T07:28:54;2.00;;;1.80;;
52934;SDS011;38802;50.198;19.796;2022-07-29T07:31:21;2.20;;;1.70;;
52934;SDS011;38802;50.198;19.796;2022-07-29T07:33:48;3.50;;;1.80;;
52934;SDS011;38802;50.198;19.796;2022-07-29T07:36:14;2.50;;;1.80;;
52934;SDS011;38802;50.198;19.796;2022-07-29T07:38:41;3.60;;;1.70;;
52934;SDS011;38802;50.198;19.796;2022-07-29T07:41:08;2.30;;;1.60;;
52934;SDS011;38802;50.198;19.796;2022-07-29T07:43:35;3.70;;;1.40;;
52934;SDS011;38802;50.198;19.796;2022-07-29T07:46:01;6.20;;;1.50;;
52934;SDS011;38802;50.198;19.796;2022-07-29T07:48:28;5.30;;;1.50;;
52934;SDS011;38802;50.198;19.796;2022-07-29T07:50:55;3.20;;;1.40;;
52934;SDS011;38802;50.198;19.796;2022-07-29T07:53:22;4.80;;;1.20;;
52934;SDS011;38802;50.198;19.796;2022-07-29T07:55:49;2.70;;;1.70;;
52934;SDS011;38802;50.198;19.796;2022-07-29T07:58:36;5.10;;;1.30;;
52934;SDS011;38802;50.198;19.796;2022-07-29T08:01:06;2.30;;;1.10;;
52934;SDS011;38802;50.198;19.796;2022-07-29T08:03:34;2.70;;;1.60;;
52934;SDS011;38802;50.198;19.796;2022-07-29T08:06:02;1.80;;;1.20;;
52934;SDS011;38802;50.198;19.796;2022-07-29T08:08:30;5.20;;;1.50;;
52934;SDS011;38802;50.198;19.796;2022-07-29T08:10:57;2.30;;;1.30;;
52934;SDS011;38802;50.198;19.796;2022-07-29T08:13:26;1.20;;;1.00;;
52934;SDS011;38802;50.198;19.796;2022-07-29T08:15:56;3.50;;;1.30;;
52934;SDS011;38802;50.198;19.796;2022-07-29T08:18:25;4.10;;;1.30;;
52934;SDS011;38802;50.198;19.796;2022-07-29T08:20:56;4.60;;;1.30;;
52934;SDS011;38802;50.198;19.796;2022-07-29T08:23:23;4.40;;;1.20;;
52934;SDS011;38802;50.198;19.796;2022-07-29T08:25:51;7.00;;;1.20;;
52934;SDS011;38802;50.198;19.796;2022-07-29T08:28:20;5.70;;;1.30;;
52934;SDS011;38802;50.198;19.796;2022-07-29T08:30:52;2.00;;;1.20;;
52934;SDS011;38802;50.198;19.796;2022-07-29T08:33:19;4.20;;;1.00;;
52934;SDS011;38802;50.198;19.796;2022-07-29T08:35:45;7.40;;;1.60;;
52934;SDS011;38802;50.198;19.796;2022-07-29T08:38:12;1.80;;;1.10;;
52934;SDS011;38802;50.198;19.796;2022-07-29T08:40:39;3.20;;;1.40;;
52934;SDS011;38802;50.198;19.796;2022-07-29T08:43:07;3.10;;;1.30;;
52934;SDS011;38802;50.198;19.796;2022-07-29T08:45:41;4.80;;;1.50;;
52934;SDS011;38802;50.198;19.796;2022-07-29T08:48:15;2.90;;;1.20;;
52934;SDS011;38802;50.198;19.796;2022-07-29T08:50:44;8.00;;;1.50;;
52934;SDS011;38802;50.198;19.796;2022-07-29T08:53:14;1.40;;;1.20;;
52934;SDS011;38802;50.198;19.796;2022-07-29T08:55:42;1.90;;;1.00;;
52934;SDS011;38802;50.198;19.796;2022-07-29T08:58:10;4.80;;;1.10;;
52934;SDS011;38802;50.198;19.796;2022-07-29T09:00:45;5.20;;;1.30;;
52934;SDS011;38802;50.198;19.796;2022-07-29T09:03:17;2.60;;;1.40;;
52934;SDS011;38802;50.198;19.796;2022-07-29T09:05:46;5.70;;;1.50;;
52934;SDS011;38802;50.198;19.796;2022-07-29T09:08:15;2.20;;;1.10;;
52934;SDS011;38802;50.198;19.796;2022-07-29T09:10:43;8.60;;;1.50;;
52934;SDS011;38802;50.198;19.796;2022-07-29T09:13:10;2.20;;;1.40;;
52934;SDS011;38802;50.198;19.796;2022-07-29T09:15:37;4.60;;;1.30;;
52934;SDS011;38802;50.198;19.796;2022-07-29T09:18:05;5.80;;;1.30;;
52934;SDS011;38802;50.198;19.796;2022-07-29T09:20:32;5.00;;;1.40;;
52934;SDS011;38802;50.198;19.796;2022-07-29T09:23:17;3.90;;;1.10;;
52934;SDS011;38802;50.198;19.796;2022-07-29T09:25:50;3.00;;;1.20;;
52934;SDS011;38802;50.198;19.796;2022-07-29T09:28:17;2.90;;;1.10;;
52934;SDS011;38802;50.198;19.796;2022-07-29T09:30:56;3.50;;;1.20;;
52934;SDS011;38802;50.198;19.796;2022-07-29T09:33:31;4.50;;;1.20;;
52934;SDS011;38802;50.198;19.796;2022-07-29T09:36:04;2.60;;;1.60;;
52934;SDS011;38802;50.198;19.796;2022-07-29T09:38:35;3.80;;;1.40;;
52934;SDS011;38802;50.198;19.796;2022-07-29T09:41:05;3.80;;;1.20;;
52934;SDS011;38802;50.198;19.796;2022-07-29T09:43:35;4.10;;;1.40;;
52934;SDS011;38802;50.198;19.796;2022-07-29T09:46:11;2.50;;;1.50;;
52934;SDS011;38802;50.198;19.796;2022-07-29T09:48:39;7.30;;;1.60;;
52934;SDS011;38802;50.198;19.796;2022-07-29T09:51:16;6.50;;;1.50;;
52934;SDS011;38802;50.198;19.796;2022-07-29T09:53:54;10.20;;;2.60;;
52934;SDS011;38802;50.198;19.796;2022-07-29T09:56:36;7.00;;;1.60;;
52934;SDS011;38802;50.198;19.796;2022-07-29T09:59:08;2.30;;;1.40;;
52934;SDS011;38802;50.198;19.796;2022-07-29T10:01:35;2.00;;;1.50;;
52934;SDS011;38802;50.198;19.796;2022-07-29T10:04:02;5.40;;;1.70;;
52934;SDS011;38802;50.198;19.796;2022-07-29T10:06:29;4.40;;;1.30;;
52934;SDS011;38802;50.198;19.796;2022-07-29T10:09:17;4.00;;;1.60;;
52934;SDS011;38802;50.198;19.796;2022-07-29T10:12:04;4.40;;;1.80;;
52934;SDS011;38802;50.198;19.796;2022-07-29T10:14:40;3.00;;;1.40;;
52934;SDS011;38802;50.198;19.796;2022-07-29T10:17:09;4.10;;;1.40;;
52934;SDS011;38802;50.198;19.796;2022-07-29T10:19:37;7.10;;;1.70;;
52934;SDS011;38802;50.198;19.796;2022-07-29T10:22:06;2.00;;;1.10;;
52934;SDS011;38802;50.198;19.796;2022-07-29T10:24:35;3.80;;;1.40;;
52934;SDS011;38802;50.198;19.796;2022-07-29T10:27:04;7.80;;;1.30;;
52934;SDS011;38802;50.198;19.796;2022-07-29T10:29:33;4.60;;;1.60;;
52934;SDS011;38802;50.198;19.796;2022-07-29T10:37:28;1.50;;;1.20;;
52934;SDS011;38802;50.198;19.796;2022-07-29T10:43:03;4.10;;;1.50;;
52934;SDS011;38802;50.198;19.796;2022-07-29T10:45:45;3.80;;;1.60;;
52934;SDS011;38802;50.198;19.796;2022-07-29T10:48:16;4.70;;;1.50;;
52934;SDS011;38802;50.198;19.796;2022-07-29T10:53:22;7.10;;;1.40;;
52934;SDS011;38802;50.198;19.796;2022-07-29T10:55:51;4.20;;;1.80;;
52934;SDS011;38802;50.198;19.796;2022-07-29T10:58:23;2.50;;;1.30;;
52934;SDS011;38802;50.198;19.796;2022-07-29T11:00:51;3.20;;;1.20;;
52934;SDS011;38802;50.198;19.796;2022-07-29T11:06:16;5.30;;;1.70;;
52934;SDS011;38802;50.198;19.796;2022-07-29T11:12:01;4.00;;;1.60;;
52934;SDS011;38802;50.198;19.796;2022-07-29T11:17:22;4.60;;;1.50;;
52934;SDS011;38802;50.198;19.796;2022-07-29T11:19:51;2.40;;;1.80;;
52934;SDS011;38802;50.198;19.796;2022-07-29T11:22:34;2.70;;;2.00;;
52934;SDS011;38802;50.198;19.796;2022-07-29T11:25:15;4.80;;;1.50;;
52934;SDS011;38802;50.198;19.796;2022-07-29T11:27:45;2.20;;;1.80;;
52934;SDS011;38802;50.198;19.796;2022-07-29T11:30:13;2.40;;;1.50;;
52934;SDS011;38802;50.198;19.796;2022-07-29T11:32:42;4.80;;;1.80;;
52934;SDS011;38802;50.198;19.796;2022-07-29T11:43:53;1.90;;;1.50;;
52934;SDS011;38802;50.198;19.796;2022-07-29T11:51:59;3.00;;;1.30;;
52934;SDS011;38802;50.198;19.796;2022-07-29T11:54:33;4.10;;;1.60;;
52934;SDS011;38802;50.198;19.796;2022-07-29T11:57:22;3.90;;;2.20;;
52934;SDS011;38802;50.198;19.796;2022-07-29T12:00:04;3.90;;;1.90;;
52934;SDS011;38802;50.198;19.796;2022-07-29T12:02:38;1.60;;;1.40;;
52934;SDS011;38802;50.198;19.796;2022-07-29T12:05:14;3.90;;;1.50;;
52934;SDS011;38802;50.198;19.796;2022-07-29T12:10:41;5.00;;;1.80;;
52934;SDS011;38802;50.198;19.796;2022-07-29T12:13:09;8.20;;;1.70;;
52934;SDS011;38802;50.198;19.796;2022-07-29T12:15:39;2.00;;;1.80;;
52934;SDS011;38802;50.198;19.796;2022-07-29T12:18:14;7.70;;;1.80;;
52934;SDS011;38802;50.198;19.796;2022-07-29T12:20:44;4.50;;;1.90;;
52934;SDS011;38802;50.198;19.796;2022-07-29T12:23:13;6.20;;;1.70;;
52934;SDS011;38802;50.198;19.796;2022-07-29T12:25:42;5.50;;;1.90;;
52934;SDS011;38802;50.198;19.796;2022-07-29T12:28:16;1.90;;;1.50;;
52934;SDS011;38802;50.198;19.796;2022-07-29T12:30:54;2.80;;;1.90;;
52934;SDS011;38802;50.198;19.796;2022-07-29T12:33:22;5.10;;;1.80;;
52934;SDS011;38802;50.198;19.796;2022-07-29T12:35:51;3.80;;;2.20;;
52934;SDS011;38802;50.198;19.796;2022-07-29T12:38:33;4.40;;;1.80;;
52934;SDS011;38802;50.198;19.796;2022-07-29T12:41:02;5.30;;;1.80;;
52934;SDS011;38802;50.198;19.796;2022-07-29T12:43:30;5.10;;;2.10;;
52934;SDS011;38802;50.198;19.796;2022-07-29T12:46:10;2.90;;;2.20;;
52934;SDS011;38802;50.198;19.796;2022-07-29T12:48:42;3.70;;;1.60;;
52934;SDS011;38802;50.198;19.796;2022-07-29T12:51:10;2.50;;;1.60;;
52934;SDS011;38802;50.198;19.796;2022-07-29T12:53:40;3.00;;;1.90;;
52934;SDS011;38802;50.198;19.796;2022-07-29T12:56:14;4.70;;;2.00;;
52934;SDS011;38802;50.198;19.796;2022-07-29T12:59:12;5.40;;;2.10;;
52934;SDS011;38802;50.198;19.796;2022-07-29T13:01:40;1.80;;;1.70;;
52934;SDS011;38802;50.198;19.796;2022-07-29T13:04:08;3.10;;;2.00;;
52934;SDS011;38802;50.198;19.796;2022-07-29T13:06:39;4.10;;;1.90;;
52934;SDS011;38802;50.198;19.796;2022-07-29T13:09:12;5.90;;;2.30;;
52934;SDS011;38802;50.198;19.796;2022-07-29T13:11:44;2.20;;;2.00;;
52934;SDS011;38802;50.198;19.796;2022-07-29T13:17:03;1.90;;;1.60;;
52934;SDS011;38802;50.198;19.796;2022-07-29T13:22:20;7.40;;;1.90;;
52934;SDS011;38802;50.198;19.796;2022-07-29T13:24:53;3.60;;;1.90;;
52934;SDS011;38802;50.198;19.796;2022-07-29T13:27:24;2.00;;;1.50;;
52934;SDS011;38802;50.198;19.796;2022-07-29T13:29:54;2.80;;;1.80;;
52934;SDS011;38802;50.198;19.796;2022-07-29T13:32:26;3.30;;;1.60;;
52934;SDS011;38802;50.198;19.796;2022-07-29T13:34:56;6.70;;;2.10;;
52934;SDS011;38802;50.198;19.796;2022-07-29T13:37:23;8.10;;;2.00;;
52934;SDS011;38802;50.198;19.796;2022-07-29T13:39:51;6.60;;;1.80;;
52934;SDS011;38802;50.198;19.796;2022-07-29T13:42:20;6.40;;;1.90;;
52934;SDS011;38802;50.198;19.796;2022-07-29T13:44:47;8.60;;;1.90;;
52934;SDS011;38802;50.198;19.796;2022-07-29T13:47:19;5.90;;;2.20;;
52934;SDS011;38802;50.198;19.796;2022-07-29T13:49:47;2.50;;;2.20;;
52934;SDS011;38802;50.198;19.796;2022-07-29T13:52:14;3.30;;;2.40;;
52934;SDS011;38802;50.198;19.796;2022-07-29T13:54:42;5.20;;;2.10;;
52934;SDS011;38802;50.198;19.796;2022-07-29T13:57:10;5.20;;;1.60;;
52934;SDS011;38802;50.198;19.796;2022-07-29T13:59:41;7.30;;;1.90;;
52934;SDS011;38802;50.198;19.796;2022-07-29T14:02:08;5.40;;;1.80;;
52934;SDS011;38802;50.198;19.796;2022-07-29T14:04:36;2.90;;;1.80;;
52934;SDS011;38802;50.198;19.796;2022-07-29T14:07:05;3.50;;;1.90;;
52934;SDS011;38802;50.198;19.796;2022-07-29T14:09:33;4.30;;;2.30;;
52934;SDS011;38802;50.198;19.796;2022-07-29T14:12:07;3.50;;;1.90;;
52934;SDS011;38802;50.198;19.796;2022-07-29T14:14:35;5.90;;;1.60;;
52934;SDS011;38802;50.198;19.796;2022-07-29T14:17:03;1.80;;;1.70;;
52934;SDS011;38802;50.198;19.796;2022-07-29T14:19:32;3.10;;;2.00;;
52934;SDS011;38802;50.198;19.796;2022-07-29T14:22:02;3.20;;;2.50;;
52934;SDS011;38802;50.198;19.796;2022-07-29T14:24:31;4.90;;;2.30;;
52934;SDS011;38802;50.198;19.796;2022-07-29T14:26:58;6.50;;;2.00;;
52934;SDS011;38802;50.198;19.796;2022-07-29T14:29:25;4.60;;;2.20;;
52934;SDS011;38802;50.198;19.796;2022-07-29T14:32:04;3.70;;;2.30;;
52934;SDS011;38802;50.198;19.796;2022-07-29T14:34:34;7.70;;;2.10;;
52934;SDS011;38802;50.198;19.796;2022-07-29T14:37:02;3.00;;;1.90;;
52934;SDS011;38802;50.198;19.796;2022-07-29T14:39:31;9.20;;;2.10;;
52934;SDS011;38802;50.198;19.796;2022-07-29T14:41:58;3.10;;;2.20;;
52934;SDS011;38802;50.198;19.796;2022-07-29T14:44:26;6.50;;;2.30;;
52934;SDS011;38802;50.198;19.796;2022-07-29T14:46:57;3.20;;;2.20;;
52934;SDS011;38802;50.198;19.796;2022-07-29T14:49:26;5.00;;;2.10;;
52934;SDS011;38802;50.198;19.796;2022-07-29T14:51:53;7.70;;;2.10;;
52934;SDS011;38802;50.198;19.796;2022-07-29T14:54:20;12.00;;;2.20;;
52934;SDS011;38802;50.198;19.796;2022-07-29T14:56:47;12.40;;;2.40;;
52934;SDS011;38802;50.198;19.796;2022-07-29T14:59:15;4.00;;;2.30;;
52934;SDS011;38802;50.198;19.796;2022-07-29T15:01:42;4.40;;;2.30;;
52934;SDS011;38802;50.198;19.796;2022-07-29T15:04:09;4.60;;;2.00;;
52934;SDS011;38802;50.198;19.796;2022-07-29T15:06:36;7.20;;;2.00;;
52934;SDS011;38802;50.198;19.796;2022-07-29T15:09:05;7.10;;;2.10;;
52934;SDS011;38802;50.198;19.796;2022-07-29T15:11:32;2.20;;;2.00;;
52934;SDS011;38802;50.198;19.796;2022-07-29T15:14:05;9.10;;;2.40;;
52934;SDS011;38802;50.198;19.796;2022-07-29T15:16:32;3.40;;;2.10;;
52934;SDS011;38802;50.198;19.796;2022-07-29T15:19:01;2.50;;;2.00;;
52934;SDS011;38802;50.198;19.796;2022-07-29T15:21:28;2.60;;;2.30;;
52934;SDS011;38802;50.198;19.796;2022-07-29T15:23:55;8.60;;;4.60;;
52934;SDS011;38802;50.198;19.796;2022-07-29T15:26:22;7.80;;;6.40;;
52934;SDS011;38802;50.198;19.796;2022-07-29T15:28:49;9.10;;;3.50;;
52934;SDS011;38802;50.198;19.796;2022-07-29T15:31:16;5.00;;;4.10;;
52934;SDS011;38802;50.198;19.796;2022-07-29T15:33:45;5.50;;;3.80;;
52934;SDS011;38802;50.198;19.796;2022-07-29T15:36:11;7.80;;;2.70;;
52934;SDS011;38802;50.198;19.796;2022-07-29T15:38:59;6.00;;;2.50;;
52934;SDS011;38802;50.198;19.796;2022-07-29T15:41:27;3.80;;;2.40;;
52934;SDS011;38802;50.198;19.796;2022-07-29T15:43:54;4.80;;;2.10;;
52934;SDS011;38802;50.198;19.796;2022-07-29T15:46:21;2.60;;;2.00;;
52934;SDS011;38802;50.198;19.796;2022-07-29T15:49:07;4.30;;;2.10;;
52934;SDS011;38802;50.198;19.796;2022-07-29T15:51:34;2.30;;;2.00;;
52934;SDS011;38802;50.198;19.796;2022-07-29T15:54:04;6.70;;;2.50;;
52934;SDS011;38802;50.198;19.796;2022-07-29T15:56:31;9.90;;;2.40;;